Pronóstico
Mapa Interactivo
Aviación
Climatología
Hidrometeorología
Agrometeorología
Estaciones Automáticas
Transparencia
OMM WMO
Portada
Institución
Noticias
Imágenes
Tsunami
Historial
Boletines y Alertas
Contactos
Buscar Contenidos
Informe del Tiempo

     

                                                VUELOS DE BAJO NIVEL DESDE SUPERFICIE HASTA 24,000 PIES.


VALIDO DESDE 151200Z ...…………………….…………………HASTA 160000Z

 

FIR SANTO DOMINGOSRN WTRS ... SCT030 BKN120. TOPS LYRD ABV FL240. SCT SHRA.

19Z WDLYSCT TSRA. OTLK ... VFR TSRA.RMNDR ... SCT020. 19Z BKN025. TOPS 080.

WDLY SCT TSRA. OTLK ... VFRTSRA.

 

5,000 FT.

10,000 FT.

18,000 FT.

24,000 FT.

MDSD

1405KT+17ºC

0915KT+09ºC

0815KT-06ºC

0520KT-16ºC

MTPP

1310KT+18ºC

0915KT+09ºC

0815KT-06ºC

0520KT-16ºC

TJSJ

1010KT+17ºC

1705KT+08ºC

1405KT-07ºC

0205KT-17ºC

 

 

 

 

 

 

TAF

TAF MDPP 151000Z 1512/1612 00000KT 9999 SCT022 BECMG 1514/1516 06010KT=

TAF MDST 151000Z 1512/1612 14015KT 9999 SCT022 TEMPO 1512/1514 4000 BR OVC012 BECMG 1512/1514 13004KT=

TAF MDPC 151000Z 1512/1612 07010KT 9999 FEW020 SCT080 PROB30 1518/1523 8000 -TSRA FEW016CB SCT016 BKN070=

TAF MDBH 151000Z 1512/1612 00000KT 9999 FEW014CB FEW016 SCT080 BECMG 1513/1515 13012KT=

TAF MDJB 151000Z 1512/1612 00000KT 9999 FEW018 BECMG 1515/1517 09006KT PROB40 TEMPO 1518/1600 7000 -TSRA FEW014CB BKN016 BKN070=

TAF MDSD 151000Z 1512/1612 07004KT 9999 FEW016 BECMG 1516/1518 14010KT PROB40 TEMPO 1520/1602 7000 -RA FEW016CB BKN016 BKN070=

TAF MDLR 151000Z 1512/1612 00000KT 9999 FEW016 BECMG 1514/1516 12008KT PROB30 1518/1523 8000 -TSRA FEW014CB BKN016 BKN070=

TAF MDCY 151000Z 1512/1612 00000KT 9999 FEW016 BECMG 1516/1518 09006KT=

 

KMIA 150841Z 1509/1612 11008KT P6SM FEW025 FM151500 10012KT P6SM SCT025 FM160400 10008KT P6SM SKC=

 

KJFK 150840Z 1509/1612 16005KT P6SM -SHRA FEW015 OVC035 TEMPO 1509/1513 BKN025 FM151300 19013KT 5SM -SHRA BR SCT007 OVC015 TEMPO 1513/1516 3SM SHRA BR BKN007 FM151600 21014KT P6SM VCSH SCT007 OVC025 FM152100 22017G22KT 3SM -SHRA BR BKN015 FM160400 28018G30KT P6SM BKN040 FM160700 32016G25KT P6SM SCT040=

 

TJSJ 150540Z 1506/1606 VRB04KT P6SM SHRA SCT035 SCT050 SCT140 TEMPO 1508/1510 VRB10G20KT 3SM +SHRA SCT020 BKN025 OVC060 FM151400 08012KT P6SM VCSH FEW024 SCT030 SCT080 FM151600 08016KT P6SM SHRA VCTS SCT025CB SCT030 SCT100 FM152200 09005KT P6SM FEW030 SCT060=

 

MUHA 150500Z 1506/1606 VRB03KT 9000 FEW030 BECMG 1513/1515 09007KT TEMPO 1519/1523 VRB10KT 3000 TSRA FEW018CB BKN025 BECMG 1604/1606 VRB03KT=

 

TAF MUGM 1507/1607 36006KT 9999 FEW020 SCT060 QNH2987INS BECMG 1513/1515 13012KT 9999 VCSH FEW030 SCT280 QNH2994INS BECMG 1520/1522 14008KT 9999 FEW030 SCT120 BKN280 QNH2987INS BECMG 1601/1603 03006KT 9999 SCT020 QNH2994INS T24/1509Z T31/1516Z FN00182=

 

TAF TNCC 150930Z 1512/1612 11010KT 9999 SCT020=

 

TAF MKJP 150515Z 1506/1606 14010KT 9999 SCT020 BKN038 TEMPO 1506/1510 8000 SHRA SCT018 BKN030 BECMG 1514/1516 14020KT PROB40 TEMPO 1516/1524 7000 TSRA BKN018 BKN020CB BECMG 1600/1602 12010KT FEW020 FEW022CB=

 

 

PREPARADO POR: ROBIN RODRIGUEZ 15 de OCTUBRE del 2018-